Latest Weather Observations for Lameroo AWS

IDS60801

Issued at 11:35 am CST Monday 21 April 2014 (issued every 30 minutes, with the page automatically refreshed every 10 minutes)

About weather observations | Map of weather stations | Latest weather observations for SA | Other Formats
Station Details ID: 025562 Name: AUSTIN PLAINS Lat: -35.38 Lon: 140.54 Height: 110.08 m
Data from the previous 72 hours. | See also: Recent months at Lameroo AWS
Date/Time
CST
Temp
°C
App
Temp
°C
Dew
Point
Rel
Hum
%
Delta-T
°C
Wind Press
QNH
hPa
Press
MSL
hPa
Rain
since 9 am
mm
Dir
 
Spd
km/h
Gust
km/h
Spd
kts
Gust
kts
21/11:30am 24.2 16.0 6.5 32 9.2 N 39 54 21 29 1014.7 1014.5 0.0
21/11:00am 23.7 15.1 6.5 33 8.9 N 41 54 22 29 1015.2 - 0.0
21/10:30am 22.0 14.5 6.3 36 8.0 N 35 44 19 24 1015.6 1015.4 0.0
21/10:00am 20.8 14.3 6.7 40 7.2 N 30 39 16 21 1016.1 - 0.0
21/09:30am 18.9 11.9 6.1 43 6.4 N 32 43 17 23 1016.3 1016.1 0.0
21/09:00am 18.1 11.2 6.3 46 5.8 N 32 41 17 22 1016.5 1016.3 0.0
21/08:30am 16.3 11.3 6.4 52 4.9 N 22 35 12 19 1016.9 1016.7 0.0
21/08:00am 15.4 8.8 6.2 54 4.5 N 30 37 16 20 1016.6 - 0.0
21/07:30am 14.4 8.5 5.7 56 4.1 N 26 33 14 18 1016.6 1016.4 0.0
21/07:00am 13.5 8.0 5.7 59 3.7 N 24 32 13 17 1016.4 - 0.0
21/06:30am 13.5 8.4 5.9 60 3.6 N 22 30 12 16 1016.5 1016.3 0.0
21/06:00am 13.5 8.0 5.9 60 3.6 NNE 24 32 13 17 1016.5 1016.3 0.0
21/05:30am 13.2 8.1 5.9 61 3.5 NNE 22 28 12 15 1016.4 1016.2 0.0
21/05:00am 13.5 8.4 5.9 60 3.6 N 22 28 12 15 1016.5 - 0.0
21/04:30am 13.5 8.4 6.1 61 3.5 N 22 30 12 16 1016.6 1016.4 0.0
21/04:00am 13.1 8.7 6.5 64 3.2 N 19 24 10 13 1016.5 - 0.0
21/03:30am 12.9 8.9 6.7 66 3.0 N 17 20 9 11 1016.6 1016.4 0.0
21/03:00am 10.9 8.2 7.4 79 1.7 NE 11 13 6 7 1017.0 1016.8 0.0
21/02:30am 10.0 7.2 6.9 81 1.5 NE 11 11 6 6 1017.0 1016.8 0.0
21/02:00am 9.3 6.4 6.6 83 1.3 NE 11 13 6 7 1017.2 - 0.0
21/01:30am 9.2 6.2 6.1 81 1.4 ENE 11 11 6 6 1017.6 1017.4 0.0
21/01:00am 9.7 7.0 5.7 76 1.8 NE 9 13 5 7 1017.8 - 0.0
21/12:30am 12.7 11.1 7.8 72 2.4 NE 6 7 3 4 1018.2 1018.0 0.0
21/12:00am 11.9 10.0 7.4 74 2.2 NE 7 7 4 4 1018.2 1018.0 0.0
 
Date/Time
CST
Temp
°C
App
Temp
°C
Dew
Point
Rel
Hum
%
Delta-T
°C
Wind Press
QNH
hPa
Press
MSL
hPa
Rain
since 9 am
mm
Dir
 
Spd
km/h
Gust
km/h
Spd
kts
Gust
kts
20/11:30pm 12.9 11.1 7.1 68 2.8 NNE 6 7 3 4 1018.4 1018.3 0.0
20/11:00pm 12.3 10.9 7.4 72 2.4 NNE 4 4 2 2 1018.7 - 0.0
20/10:30pm 12.4 10.5 7.7 73 2.3 NNE 7 9 4 5 1018.7 1018.6 0.0
20/10:00pm 11.4 9.3 5.9 69 2.6 E 6 11 3 6 1019.0 - 0.0
20/09:30pm 14.3 12.8 8.5 68 2.9 ESE 6 7 3 4 1018.8 1018.7 0.0
20/09:00pm 14.4 12.9 8.4 67 3.0 SE 6 6 3 3 1018.7 1018.6 0.0
20/08:30pm 14.1 12.5 7.9 66 3.1 SE 6 6 3 3 1018.5 1018.4 0.0
20/08:00pm 15.2 13.5 8.2 63 3.5 SSE 7 7 4 4 1018.3 - 0.0
20/07:30pm 15.7 14.0 8.4 62 3.7 SSE 7 7 4 4 1018.3 1018.1 0.0
20/07:00pm 16.7 14.9 7.9 56 4.5 S 7 9 4 5 1018.0 - 0.0
20/06:30pm 17.6 15.7 7.6 52 5.1 SSW 7 7 4 4 1017.9 1017.7 0.0
20/06:00pm 17.2 14.8 7.0 51 5.1 SW 9 11 5 6 1017.7 1017.5 0.0
20/05:30pm 19.2 16.4 7.0 45 6.2 SW 11 13 6 7 1017.4 1017.2 0.0
20/05:00pm 20.4 17.1 6.4 40 7.1 WSW 13 17 7 9 1017.0 - 0.0
20/04:30pm 20.9 17.7 5.3 36 7.7 WSW 11 15 6 8 1017.0 1016.8 0.0
20/04:00pm 21.1 17.5 5.1 35 7.9 WSW 13 19 7 10 1016.9 - 0.0
20/03:30pm 20.9 18.0 4.5 34 8.0 WSW 9 13 5 7 1016.9 1016.7 0.0
20/03:00pm 22.0 18.6 4.1 31 8.7 WSW 11 17 6 9 1016.8 1016.6 0.0
20/02:30pm 21.5 18.5 4.1 32 8.5 W 9 22 5 12 1016.8 1016.6 0.0
20/02:00pm 21.1 18.0 3.8 32 8.4 WSW 9 19 5 10 1017.0 - 0.0
20/01:30pm 20.9 18.4 3.6 32 8.3 W 6 15 3 8 1017.1 1016.9 0.0
20/01:00pm 20.4 16.6 4.0 34 7.9 WSW 13 22 7 12 1017.4 - 0.0
20/12:30pm 19.5 16.4 3.6 35 7.5 SW 9 19 5 10 1017.8 1017.6 0.0
20/12:00pm 18.8 15.3 3.4 36 7.2 WSW 11 19 6 10 1018.4 1018.3 0.0
20/11:30am 18.6 15.1 3.3 36 7.2 W 11 20 6 11 1018.6 1018.5 0.0
20/11:00am 18.3 14.7 3.0 36 7.1 W 11 20 6 11 1018.8 - 0.0
20/10:30am 17.6 14.4 2.8 37 6.8 W 9 17 5 9 1019.1 1019.0 0.0
20/10:00am 17.3 14.1 3.2 39 6.5 WNW 9 13 5 7 1019.2 - 0.0
20/09:30am 17.1 14.2 4.4 43 6.0 NW 9 15 5 8 1019.4 1019.3 0.0
20/09:00am 16.1 12.8 4.5 46 5.5 N 11 15 6 8 1019.4 1019.3 0.0
20/08:30am 14.6 11.8 5.1 53 4.5 N 9 13 5 7 1019.3 1019.2 0.0
20/08:00am 12.9 10.7 5.1 59 3.6 NNE 6 7 3 4 1019.2 - 0.0
20/07:30am 10.9 9.2 5.7 70 2.4 N 4 6 2 3 1018.9 1018.8 0.0
20/07:00am 10.9 8.6 5.9 71 2.3 N 7 9 4 5 1018.6 - 0.0
20/06:30am 10.5 8.5 6.1 74 2.1 N 6 7 3 4 1018.3 1018.1 0.0
20/06:00am 10.4 8.3 6.0 74 2.0 NNW 6 6 3 3 1018.3 1018.1 0.0
20/05:30am 10.6 8.5 5.6 71 2.3 N 6 7 3 4 1018.0 1017.8 0.0
20/05:00am 10.5 8.3 5.5 71 2.3 N 6 9 3 5 1017.9 - 0.0
20/04:30am 10.5 8.2 5.5 71 2.3 NNE 7 7 4 4 1017.7 1017.5 0.0
20/04:00am 10.2 7.8 5.4 72 2.2 NNE 7 9 4 5 1017.6 - 0.0
20/03:30am 10.0 7.7 5.8 75 1.9 ENE 7 9 4 5 1017.4 1017.2 0.0
20/03:00am 9.8 7.7 5.8 76 1.8 ENE 6 7 3 4 1017.5 1017.3 0.0
20/02:30am 9.9 8.5 5.5 74 2.0 ENE 2 7 1 4 1017.7 1017.5 0.0
20/02:00am 9.5 7.8 5.9 78 1.7 SSW 4 6 2 3 1017.9 - 0.0
20/01:30am 9.0 8.0 5.6 79 1.5 CALM 0 4 0 2 1018.0 1017.8 0.0
20/01:00am 8.6 7.1 5.0 78 1.6 NE 2 6 1 3 1018.1 - 0.0
20/12:30am 7.9 5.4 3.8 75 1.8 E 6 6 3 3 1018.0 1017.8 0.0
20/12:00am 8.6 6.1 3.6 71 2.2 E 6 7 3 4 1018.1 1017.9 0.0
 
Date/Time
CST
Temp
°C
App
Temp
°C
Dew
Point
Rel
Hum
%
Delta-T
°C
Wind Press
QNH
hPa
Press
MSL
hPa
Rain
since 9 am
mm
Dir
 
Spd
km/h
Gust
km/h
Spd
kts
Gust
kts
19/11:30pm 9.1 7.4 3.9 70 2.3 E 2 4 1 2 1018.2 1018.0 0.0
19/11:00pm 8.9 6.8 3.7 70 2.3 E 4 4 2 2 1018.3 - 0.0
19/10:30pm 8.9 6.5 4.1 72 2.1 SE 6 6 3 3 1018.6 1018.5 0.0
19/10:00pm 9.1 6.5 4.1 71 2.2 S 7 9 4 5 1018.9 - 0.0
19/09:30pm 9.6 7.6 4.2 69 2.4 SSE 4 4 2 2 1019.0 1018.9 0.0
19/09:00pm 10.2 7.7 3.7 64 2.9 SSW 6 6 3 3 1018.8 1018.7 0.0
19/08:30pm 10.9 8.4 3.9 62 3.1 SW 6 6 3 3 1019.0 1018.9 0.0
19/08:00pm 11.8 9.4 4.1 59 3.5 SSW 6 6 3 3 1019.0 - 0.0
19/07:30pm 11.7 9.3 4.2 60 3.4 SW 6 7 3 4 1019.1 1019.0 0.0
19/07:00pm 12.6 10.2 4.1 56 3.9 SW 6 7 3 4 1018.9 - 0.0
19/06:30pm 12.9 9.8 3.6 53 4.2 SSW 9 11 5 6 1018.9 1018.8 0.0
19/06:00pm 14.3 11.7 3.2 47 5.0 SW 6 7 3 4 1018.8 1018.7 0.0
19/05:30pm 14.9 12.1 3.1 45 5.3 WSW 7 9 4 5 1018.8 1018.7 0.0
19/05:00pm 16.9 14.1 2.9 39 6.4 WSW 7 11 4 6 1018.7 - 0.0
19/04:30pm 16.9 14.1 2.9 39 6.4 WSW 7 7 4 4 1018.7 1018.6 0.0
19/04:00pm 17.8 13.7 2.5 36 7.0 W 13 19 7 10 1019.0 - 0.0
19/03:30pm 18.0 15.1 2.7 36 7.0 W 7 11 4 6 1019.1 1019.0 0.0
19/03:00pm 18.1 15.7 2.4 35 7.2 W 4 9 2 5 1019.3 1019.2 0.0
19/02:30pm 17.5 14.1 1.9 35 7.0 WSW 9 15 5 8 1019.4 1019.3 0.0
19/02:00pm 17.9 14.2 2.6 36 7.0 WSW 11 19 6 10 1019.6 - 0.0
19/01:30pm 17.3 14.4 2.5 37 6.7 W 7 15 4 8 1019.9 1019.8 0.0
19/01:00pm 17.3 13.6 2.5 37 6.8 SE 11 19 6 10 1020.4 - 0.0
19/12:30pm 16.5 13.3 2.9 40 6.2 S 9 15 5 8 1021.1 1021.0 0.0
19/12:00pm 16.0 13.1 2.4 40 6.1 S 7 11 4 6 1021.7 1021.6 0.0
19/11:30am 15.7 12.5 2.8 42 5.8 SSW 9 17 5 9 1022.2 1022.1 0.0
19/11:00am 15.2 12.9 2.7 43 5.6 SW 4 9 2 5 1022.6 - 0.0
19/10:30am 15.7 13.9 3.2 43 5.7 WNW 2 7 1 4 1022.9 1022.8 0.0
19/10:00am 14.8 12.3 3.6 47 5.1 SE 6 13 3 7 1023.1 - 0.0
19/09:30am 14.3 12.4 4.9 53 4.4 E 4 7 2 4 1023.5 1023.3 0.0
19/09:00am 12.9 11.7 6.5 65 3.1 WSW 2 4 1 2 1023.5 1023.3 0.0
19/08:30am 11.3 9.5 7.0 75 2.1 SSW 6 13 3 7 1023.3 1023.1 0.0
19/08:00am 10.8 9.3 6.7 76 1.9 NE 4 6 2 3 1022.8 - 0.0
19/07:30am 8.1 6.1 6.2 88 0.9 NE 6 6 3 3 1022.5 1022.4 0.0
19/07:00am 6.0 4.0 4.5 90 0.6 N 4 6 2 3 1022.3 - 0.0
19/06:30am 6.6 5.1 5.1 90 0.7 WNW 2 6 1 3 1022.3 1022.2 0.0
19/06:00am 6.5 5.0 5.1 91 0.6 W 2 7 1 4 1022.3 1022.2 0.0
19/05:30am 6.3 4.8 4.9 91 0.6 WSW 2 4 1 2 1022.3 1022.2 0.0
19/05:00am 6.5 4.0 5.0 90 0.7 S 7 9 4 5 1022.2 - 0.0
19/04:30am 7.3 5.5 5.6 89 0.8 E 4 20 2 11 1022.2 1022.1 0.0
19/04:00am 7.6 6.5 5.2 85 1.1 CALM 0 0 0 0 1021.9 - 0.0
19/03:30am 6.9 5.1 5.2 89 0.8 SSE 4 4 2 2 1022.0 1021.9 0.0
19/03:00am 6.0 3.5 4.0 87 0.9 SW 6 9 3 5 1022.1 1022.0 0.0
19/02:30am 6.8 4.0 5.1 89 0.7 S 9 11 5 6 1022.1 1022.0 0.0
19/02:00am 6.6 3.7 4.8 88 0.8 S 9 11 5 6 1022.3 - 0.0
19/01:30am 7.3 4.5 5.0 85 1.0 S 9 9 5 5 1022.4 1022.3 0.0
19/01:00am 6.9 3.6 4.7 86 1.0 S 11 11 6 6 1022.6 - 0.0
19/12:30am 6.4 3.5 4.4 87 0.9 SSW 9 11 5 6 1022.7 1022.6 0.0
19/12:00am 6.6 4.0 4.4 86 0.9 SSW 7 9 4 5 1022.7 1022.6 0.0
 
Date/Time
CST
Temp
°C
App
Temp
°C
Dew
Point
Rel
Hum
%
Delta-T
°C
Wind Press
QNH
hPa
Press
MSL
hPa
Rain
since 9 am
mm
Dir
 
Spd
km/h
Gust
km/h
Spd
kts
Gust
kts
18/11:30pm 6.4 3.0 4.2 86 0.9 SSW 11 11 6 6 1022.7 1022.6 0.0
18/11:00pm 7.3 4.4 4.4 82 1.3 SSW 9 11 5 6 1022.7 - 0.0
18/10:30pm 7.6 4.3 4.6 81 1.3 SW 11 11 6 6 1022.9 1022.8 0.0
18/10:00pm 7.8 4.5 4.4 79 1.5 SW 11 13 6 7 1023.0 - 0.0
18/09:30pm 8.0 5.1 4.6 79 1.5 SW 9 11 5 6 1022.8 1022.7 0.0
18/09:00pm 8.6 4.9 4.4 75 1.8 SW 13 13 7 7 1022.6 1022.5 0.0
18/08:30pm 9.0 5.3 4.2 72 2.1 SSW 13 13 7 7 1022.6 1022.5 0.0
18/08:00pm 9.5 6.2 4.3 70 2.3 SW 11 13 6 7 1022.3 - 0.0
18/07:30pm 11.1 7.0 4.6 64 2.9 SSW 15 17 8 9 1022.0 1021.9 0.0
18/07:00pm 12.3 8.2 4.3 58 3.6 SSW 15 17 8 9 1021.9 - 0.0
18/06:30pm 13.9 8.9 4.8 54 4.2 SSW 20 26 11 14 1021.6 1021.5 0.0
18/06:00pm 14.6 9.7 4.9 52 4.5 SW 20 24 11 13 1021.5 1021.4 0.0
18/05:30pm 15.8 9.5 3.6 44 5.6 SSW 26 32 14 17 1021.2 1021.1 0.0
18/05:00pm 17.2 10.1 3.5 40 6.4 SSW 30 37 16 20 1020.9 - 0.0
18/04:30pm 17.9 10.5 4.1 40 6.5 SSW 32 39 17 21 1020.7 1020.6 0.0
18/04:15pm 18.4 10.7 3.5 37 7.0 SW 33 54 18 29 1020.4 - 0.0
18/04:00pm 18.7 10.9 2.9 35 7.4 SSW 33 44 18 24 1020.3 - 0.0
18/03:30pm 19.1 11.2 2.0 32 7.8 SSW 33 43 18 23 1020.2 1020.1 0.0
18/03:00pm 19.6 11.7 2.5 32 7.9 SSW 33 44 18 24 1019.8 1019.7 0.0
18/02:30pm 20.0 12.4 3.7 34 7.8 SW 33 43 18 23 1019.8 1019.7 0.0
18/02:00pm 20.6 13.3 5.4 37 7.5 SW 33 46 18 25 1019.5 - 0.0
18/01:30pm 19.8 13.3 4.7 37 7.3 SW 28 39 15 21 1019.5 1019.4 0.0
18/01:00pm 19.5 12.1 4.8 38 7.2 SW 33 44 18 24 1019.7 - 0.0
18/12:30pm 19.5 12.7 6.9 44 6.4 SSW 32 46 17 25 1020.0 1019.9 0.0
18/12:00pm 19.4 13.3 8.4 49 5.7 SSW 30 37 16 20 1020.2 1020.1 0.0

Other Formats:

Comma delimited format used in spreadsheet applications
http://www.bom.gov.au/fwo/IDS60801/IDS60801.94690.axf

JavaScript Object Notation format (JSON) in row-major order
http://www.bom.gov.au/fwo/IDS60801/IDS60801.94690.json